createdAt,value
2022-11-07T00:01:41.280Z,56.15
2022-11-07T00:04:08.072Z,56.31
2022-11-07T00:06:37.435Z,56.16
2022-11-07T00:09:04.184Z,56.50
2022-11-07T00:11:31.415Z,56.22
2022-11-07T00:13:58.117Z,56.33
2022-11-07T00:16:26.711Z,56.56
2022-11-07T00:18:53.533Z,56.42
2022-11-07T00:21:20.569Z,56.20
2022-11-07T00:23:47.417Z,56.49
2022-11-07T00:26:14.815Z,56.34
2022-11-07T00:28:42.479Z,56.33
2022-11-07T00:31:10.297Z,56.48
2022-11-07T00:33:37.014Z,56.37
2022-11-07T00:36:04.370Z,56.29
2022-11-07T00:38:31.046Z,56.47
2022-11-07T00:40:59.201Z,56.41
2022-11-07T00:43:26.069Z,56.29
2022-11-07T00:45:53.182Z,56.37
2022-11-07T00:48:20.002Z,56.37
2022-11-07T00:50:47.057Z,56.59
2022-11-07T00:53:14.115Z,56.01
2022-11-07T00:55:41.458Z,55.93
2022-11-07T00:58:12.692Z,56.02
2022-11-07T01:00:41.114Z,55.94
2022-11-07T01:03:26.322Z,55.87
2022-11-07T01:05:57.873Z,56.13
2022-11-07T01:08:24.974Z,56.03
2022-11-07T01:10:51.950Z,56.20
2022-11-07T01:13:18.722Z,55.98
2022-11-07T01:15:45.793Z,55.99
2022-11-07T01:18:12.576Z,56.13
2022-11-07T01:20:40.958Z,56.25
2022-11-07T01:23:07.980Z,56.32
2022-11-07T01:25:38.727Z,56.19
2022-11-07T01:28:06.408Z,56.24
2022-11-07T01:30:33.691Z,55.90
2022-11-07T01:33:00.394Z,56.03
2022-11-07T01:35:27.409Z,56.18
2022-11-07T01:37:54.136Z,56.25
2022-11-07T01:40:21.239Z,56.24
2022-11-07T01:42:47.995Z,56.01
2022-11-07T01:45:26.289Z,55.97
2022-11-07T01:47:53.066Z,56.11
2022-11-07T01:50:21.376Z,56.22
2022-11-07T01:52:49.659Z,56.37
2022-11-07T01:55:20.309Z,56.02
2022-11-07T01:57:55.733Z,56.24
2022-11-07T02:00:23.341Z,56.22
2022-11-07T02:02:56.265Z,56.26
2022-11-07T02:05:49.825Z,56.25
2022-11-07T02:08:16.585Z,56.24
2022-11-07T02:10:43.597Z,56.12
2022-11-07T02:13:10.349Z,55.96
2022-11-07T02:15:37.373Z,56.10
2022-11-07T02:18:04.377Z,56.20
2022-11-07T02:20:31.382Z,56.22
2022-11-07T02:23:06.506Z,56.08
2022-11-07T02:25:33.429Z,56.13
2022-11-07T02:28:01.212Z,56.22
2022-11-07T02:30:29.679Z,56.21
2022-11-07T02:32:56.446Z,55.88
2022-11-07T02:35:35.055Z,55.96
2022-11-07T02:38:26.206Z,56.14
2022-11-07T02:41:12.273Z,56.04
2022-11-07T02:43:39.513Z,56.28
2022-11-07T02:46:08.347Z,56.16
2022-11-07T02:48:49.413Z,56.14
2022-11-07T02:51:16.942Z,56.18
2022-11-07T02:53:43.705Z,56.23
2022-11-07T02:56:10.766Z,56.22
2022-11-07T02:58:37.610Z,56.28
2022-11-07T03:01:08.499Z,56.26
2022-11-07T03:03:45.305Z,56.20
2022-11-07T03:06:14.296Z,56.07
2022-11-07T03:08:41.120Z,56.08
2022-11-07T03:11:08.198Z,56.17
2022-11-07T03:13:34.993Z,56.16
2022-11-07T03:16:09.001Z,56.22
2022-11-07T03:18:36.061Z,56.29
2022-11-07T03:21:03.885Z,56.23
2022-11-07T03:23:30.757Z,56.13
2022-11-07T03:25:57.748Z,56.24
2022-11-07T03:28:24.858Z,56.25
2022-11-07T03:30:52.123Z,56.10
2022-11-07T03:33:18.900Z,56.04
2022-11-07T03:35:45.980Z,55.92
2022-11-07T03:38:12.726Z,56.16
2022-11-07T03:40:39.801Z,56.29
2022-11-07T03:43:06.535Z,56.26
2022-11-07T03:45:33.520Z,56.06
2022-11-07T03:48:00.225Z,55.95
2022-11-07T03:50:27.289Z,55.95
2022-11-07T03:52:54.117Z,55.96
2022-11-07T03:55:21.164Z,56.05
2022-11-07T03:57:47.901Z,56.02
2022-11-07T04:00:15.424Z,55.88
2022-11-07T04:02:42.785Z,55.87
2022-11-07T04:05:10.007Z,55.68
2022-11-07T04:07:36.700Z,55.66
2022-11-07T04:10:04.039Z,55.82
2022-11-07T04:12:57.088Z,55.85
2022-11-07T04:15:42.527Z,55.66
2022-11-07T04:18:09.240Z,55.74
2022-11-07T04:20:36.278Z,55.82
2022-11-07T04:23:03.001Z,55.54
2022-11-07T04:25:48.704Z,55.73
2022-11-07T04:28:17.823Z,55.75
2022-11-07T04:30:44.967Z,55.83
2022-11-07T04:33:11.801Z,55.64
2022-11-07T04:35:39.024Z,55.49
2022-11-07T04:38:05.776Z,55.73
2022-11-07T04:40:32.770Z,55.64
2022-11-07T04:42:59.509Z,55.80
2022-11-07T04:45:26.579Z,55.95
2022-11-07T04:47:53.474Z,55.89
2022-11-07T04:50:21.048Z,55.78
2022-11-07T04:52:47.902Z,55.89
2022-11-07T04:55:25.494Z,55.76
2022-11-07T04:57:52.358Z,55.78
2022-11-07T05:00:19.828Z,55.87
2022-11-07T05:02:46.838Z,55.90
2022-11-07T05:05:13.931Z,55.93
2022-11-07T05:07:40.774Z,55.71
2022-11-07T05:10:12.263Z,55.99
2022-11-07T05:12:39.189Z,55.95
2022-11-07T05:15:06.963Z,55.79
2022-11-07T05:17:33.666Z,55.88
2022-11-07T05:20:00.713Z,55.96
2022-11-07T05:22:45.639Z,55.97
2022-11-07T05:25:12.719Z,56.00
2022-11-07T05:27:39.419Z,55.94
2022-11-07T05:30:06.974Z,56.06
2022-11-07T05:32:38.190Z,56.07
2022-11-07T05:35:05.973Z,56.06
2022-11-07T05:37:32.725Z,55.98
2022-11-07T05:39:59.746Z,56.06
2022-11-07T05:42:26.534Z,56.00
2022-11-07T05:44:53.664Z,56.26
2022-11-07T05:47:20.410Z,56.13
2022-11-07T05:49:47.386Z,56.06
2022-11-07T05:52:14.158Z,56.11
2022-11-07T05:54:41.262Z,56.08
2022-11-07T05:57:07.949Z,56.04
2022-11-07T05:59:34.923Z,56.18
2022-11-07T06:02:01.750Z,56.20
2022-11-07T06:04:28.820Z,56.25
2022-11-07T06:06:55.601Z,55.98
2022-11-07T06:09:22.605Z,55.92
2022-11-07T06:11:49.334Z,56.04
2022-11-07T06:14:16.813Z,55.95
2022-11-07T06:16:43.536Z,56.07
2022-11-07T06:19:10.554Z,55.83
2022-11-07T06:21:37.232Z,55.79
2022-11-07T06:24:04.641Z,55.91
2022-11-07T06:26:31.541Z,56.02
2022-11-07T06:28:58.526Z,55.84
2022-11-07T06:31:25.235Z,55.83
2022-11-07T06:33:52.279Z,56.03
2022-11-07T06:36:19.005Z,55.93
2022-11-07T06:38:46.079Z,55.82
2022-11-07T06:41:13.850Z,55.91
2022-11-07T06:43:40.907Z,55.78
2022-11-07T06:46:09.763Z,55.83
2022-11-07T06:48:36.836Z,55.73
2022-11-07T06:51:04.203Z,55.55
2022-11-07T06:53:31.397Z,55.63
2022-11-07T06:55:59.969Z,55.51
2022-11-07T06:58:27.146Z,55.61
2022-11-07T07:00:53.983Z,55.50
2022-11-07T07:03:21.057Z,55.75
2022-11-07T07:05:47.765Z,55.66
2022-11-07T07:08:14.907Z,55.61
2022-11-07T07:10:43.434Z,55.51
2022-11-07T07:13:10.728Z,55.62
2022-11-07T07:15:50.511Z,55.39
2022-11-07T07:18:19.458Z,55.44
2022-11-07T07:20:47.239Z,55.40
2022-11-07T07:23:14.283Z,55.45
2022-11-07T07:25:40.976Z,55.43
2022-11-07T07:28:07.975Z,55.28
2022-11-07T07:30:34.652Z,55.23
2022-11-07T07:33:01.744Z,55.02
2022-11-07T07:35:28.547Z,55.03
2022-11-07T07:37:55.558Z,55.14
2022-11-07T07:40:22.324Z,55.00
2022-11-07T07:42:49.388Z,55.12
2022-11-07T07:45:16.274Z,55.21
2022-11-07T07:47:43.296Z,55.18
2022-11-07T07:50:11.073Z,54.83
2022-11-07T07:52:38.316Z,54.98
2022-11-07T07:55:07.930Z,55.07
2022-11-07T07:57:44.533Z,54.90
2022-11-07T08:00:12.144Z,54.66
2022-11-07T08:02:39.877Z,55.02
2022-11-07T08:05:07.017Z,55.08
2022-11-07T08:07:34.130Z,54.90
2022-11-07T08:10:09.951Z,54.85
2022-11-07T08:12:48.336Z,54.73
2022-11-07T08:15:15.524Z,54.69
2022-11-07T08:17:42.642Z,54.85
2022-11-07T08:20:10.396Z,54.49
2022-11-07T08:22:38.063Z,54.20
2022-11-07T08:25:05.775Z,54.10
2022-11-07T08:27:32.907Z,53.88
2022-11-07T08:29:59.707Z,54.08
2022-11-07T08:32:27.495Z,53.87
2022-11-07T08:34:54.202Z,53.96
2022-11-07T08:37:21.359Z,53.97
2022-11-07T08:39:48.143Z,53.61
2022-11-07T08:42:15.550Z,53.64
2022-11-07T08:44:42.234Z,53.62
2022-11-07T08:47:09.271Z,53.56
2022-11-07T08:49:36.034Z,53.46
2022-11-07T08:52:03.183Z,53.35
2022-11-07T08:54:30.048Z,53.43
2022-11-07T08:56:57.074Z,53.43
2022-11-07T08:59:23.798Z,53.43
2022-11-07T09:02:26.646Z,53.35
2022-11-07T09:04:37.599Z,53.09
2022-11-07T09:07:04.752Z,53.21
2022-11-07T09:09:31.471Z,53.30
2022-11-07T09:11:58.595Z,53.10
2022-11-07T09:14:25.452Z,53.04
2022-11-07T09:16:52.481Z,53.05
2022-11-07T09:19:19.206Z,52.79
2022-11-07T09:21:46.804Z,53.03
2022-11-07T09:24:13.525Z,52.93
2022-11-07T09:26:40.594Z,52.73
2022-11-07T09:29:07.299Z,52.64
2022-11-07T09:31:34.350Z,52.89
2022-11-07T09:34:01.174Z,52.99
2022-11-07T09:36:28.419Z,53.11
2022-11-07T09:38:56.916Z,52.84
2022-11-07T09:41:30.059Z,52.90
2022-11-07T09:43:56.719Z,52.87
2022-11-07T09:46:46.138Z,52.79
2022-11-07T09:49:15.514Z,52.68
2022-11-07T09:51:50.621Z,52.72
2022-11-07T09:54:20.538Z,52.60
2022-11-07T09:56:47.290Z,52.47
2022-11-07T09:59:22.005Z,52.46
2022-11-07T10:01:48.858Z,52.50
2022-11-07T10:04:24.785Z,52.30
2022-11-07T10:06:56.931Z,52.30
2022-11-07T10:09:42.317Z,52.35
2022-11-07T10:12:33.753Z,52.61
2022-11-07T10:15:09.701Z,52.39
2022-11-07T10:17:54.155Z,52.21
2022-11-07T10:20:33.304Z,52.44
2022-11-07T10:23:29.930Z,51.96
2022-11-07T10:26:05.024Z,52.29
2022-11-07T10:28:31.755Z,52.12
2022-11-07T10:30:59.186Z,52.16
2022-11-07T10:34:11.580Z,52.18
2022-11-07T10:36:38.571Z,52.02
2022-11-07T10:39:16.133Z,52.35
2022-11-07T10:41:59.848Z,52.21
2022-11-07T10:44:26.884Z,52.28
2022-11-07T10:46:54.875Z,52.11
2022-11-07T10:49:24.515Z,52.20
2022-11-07T10:51:51.828Z,51.96
2022-11-07T10:54:25.706Z,52.07
2022-11-07T10:57:02.859Z,52.02
2022-11-07T10:59:35.884Z,51.88
2022-11-07T11:02:09.117Z,51.73
2022-11-07T11:04:36.955Z,52.05
2022-11-07T11:07:05.677Z,52.13
2022-11-07T11:09:33.795Z,51.73
2022-11-07T11:12:12.425Z,51.77
2022-11-07T11:14:39.623Z,51.96
2022-11-07T11:17:06.714Z,51.75
2022-11-07T11:19:41.187Z,51.86
2022-11-07T11:22:15.048Z,52.18
2022-11-07T11:24:41.941Z,52.20
2022-11-07T11:27:22.468Z,51.93
2022-11-07T11:29:58.575Z,52.01
2022-11-07T11:33:03.549Z,52.44
2022-11-07T11:35:48.226Z,52.51
2022-11-07T11:38:31.488Z,52.21
2022-11-07T11:41:10.694Z,52.32
2022-11-07T11:43:57.642Z,52.03
2022-11-07T11:46:47.335Z,52.27
2022-11-07T11:49:51.697Z,52.37
2022-11-07T11:52:22.341Z,52.42
2022-11-07T11:54:51.124Z,52.37
2022-11-07T11:57:23.544Z,52.31
2022-11-07T11:59:57.097Z,52.51
2022-11-07T12:03:01.512Z,52.22
2022-11-07T12:06:06.135Z,52.55
2022-11-07T12:08:47.876Z,52.35
2022-11-07T12:11:17.599Z,52.36
2022-11-07T12:14:13.351Z,52.21
2022-11-07T12:17:01.944Z,52.12
2022-11-07T12:19:33.483Z,51.97
2022-11-07T12:22:15.911Z,52.13
2022-11-07T12:25:22.363Z,52.06
2022-11-07T12:28:07.496Z,52.32
2022-11-07T12:30:55.227Z,52.31
2022-11-07T12:33:34.273Z,52.00
2022-11-07T12:36:16.561Z,52.24
2022-11-07T12:38:49.611Z,52.26
2022-11-07T12:41:34.858Z,51.85
2022-11-07T12:44:23.703Z,51.84
2022-11-07T12:47:01.031Z,51.64
2022-11-07T12:49:40.136Z,51.64
2022-11-07T12:52:17.233Z,51.78
2022-11-07T12:54:55.450Z,51.44
2022-11-07T12:57:24.735Z,51.58
2022-11-07T13:00:01.971Z,51.56
2022-11-07T13:03:04.310Z,51.78
2022-11-07T13:05:39.844Z,51.86
2022-11-07T13:08:17.497Z,51.57
2022-11-07T13:10:53.677Z,51.36
2022-11-07T13:13:25.574Z,51.26
2022-11-07T13:16:14.454Z,51.43
2022-11-07T13:21:11.287Z,51.34
2022-11-07T13:23:38.574Z,51.32
2022-11-07T13:26:25.946Z,51.28
2022-11-07T13:28:57.611Z,50.88
2022-11-07T13:31:32.998Z,50.75
2022-11-07T13:34:18.258Z,51.22
2022-11-07T13:36:46.047Z,51.30
2022-11-07T13:39:13.437Z,50.90
2022-11-07T13:41:40.938Z,51.31
2022-11-07T13:44:14.279Z,51.09
2022-11-07T13:46:52.514Z,51.05
2022-11-07T13:49:30.454Z,50.96
2022-11-07T13:52:01.638Z,50.84
2022-11-07T13:54:45.885Z,51.04
2022-11-07T13:57:19.582Z,50.71
2022-11-07T13:59:46.310Z,50.64
2022-11-07T14:02:27.013Z,50.92
2022-11-07T14:05:15.196Z,50.98
2022-11-07T14:07:47.266Z,50.90
2022-11-07T14:10:19.693Z,50.72
2022-11-07T14:12:46.710Z,50.99
2022-11-07T14:15:16.863Z,50.90
2022-11-07T14:17:43.849Z,50.76
2022-11-07T14:20:16.850Z,50.81
2022-11-07T14:22:50.621Z,50.98
2022-11-07T14:25:32.674Z,51.10
2022-11-07T14:28:00.258Z,50.91
2022-11-07T14:30:28.592Z,51.12
2022-11-07T14:32:57.862Z,51.12
2022-11-07T14:35:33.426Z,51.07
2022-11-07T14:38:16.782Z,51.11
2022-11-07T14:40:43.719Z,51.18
2022-11-07T14:43:13.413Z,51.30
2022-11-07T14:46:10.727Z,51.05
2022-11-07T14:48:27.909Z,51.08
2022-11-07T14:50:55.098Z,51.12
2022-11-07T14:53:24.658Z,51.16
2022-11-07T14:55:56.790Z,51.12
2022-11-07T14:58:24.756Z,51.22
2022-11-07T15:00:59.826Z,51.36
2022-11-07T15:03:30.772Z,51.18
2022-11-07T15:05:57.758Z,51.07
2022-11-07T15:08:31.695Z,51.26
2022-11-07T15:11:16.468Z,51.50
2022-11-07T15:13:43.495Z,51.20
2022-11-07T15:16:17.680Z,51.33
2022-11-07T15:18:49.644Z,51.16
2022-11-07T15:21:33.978Z,51.20
2022-11-07T15:24:13.662Z,51.06
2022-11-07T15:26:42.542Z,51.31
2022-11-07T15:29:14.850Z,51.27
2022-11-07T15:31:47.362Z,51.21
2022-11-07T15:34:17.924Z,51.29
2022-11-07T15:36:48.731Z,51.15
2022-11-07T15:39:16.015Z,51.30
2022-11-07T15:41:42.736Z,51.36
2022-11-07T15:44:09.754Z,51.63
2022-11-07T15:46:38.417Z,51.42
2022-11-07T15:49:06.270Z,51.38
2022-11-07T15:51:33.135Z,51.27
2022-11-07T15:54:00.129Z,51.60
2022-11-07T15:56:26.870Z,51.35
2022-11-07T15:58:53.962Z,51.63
2022-11-07T16:01:20.728Z,51.28
2022-11-07T16:03:48.016Z,51.43
2022-11-07T16:06:28.139Z,51.58
2022-11-07T16:08:55.176Z,51.39
2022-11-07T16:11:22.064Z,51.44
2022-11-07T16:13:50.866Z,51.46
2022-11-07T16:16:20.239Z,51.34
2022-11-07T16:18:49.823Z,51.29
2022-11-07T16:21:17.575Z,51.38
2022-11-07T16:23:47.852Z,51.50
2022-11-07T16:26:15.498Z,51.53
2022-11-07T16:28:42.892Z,51.80
2022-11-07T16:31:09.625Z,51.79
2022-11-07T16:33:36.606Z,51.66
2022-11-07T16:36:14.883Z,51.47
2022-11-07T16:38:41.858Z,51.56
2022-11-07T16:41:08.665Z,51.76
2022-11-07T16:43:37.994Z,51.84
2022-11-07T16:46:04.810Z,51.73
2022-11-07T16:48:32.211Z,51.88
2022-11-07T16:50:58.978Z,51.89
2022-11-07T16:53:26.111Z,51.82
2022-11-07T16:55:56.190Z,51.61
2022-11-07T16:58:27.175Z,51.57
2022-11-07T17:00:54.789Z,51.76
2022-11-07T17:03:22.174Z,51.72
2022-11-07T17:05:48.968Z,51.75
2022-11-07T17:08:21.160Z,51.56
2022-11-07T17:10:47.945Z,51.75
2022-11-07T17:13:14.924Z,51.76
2022-11-07T17:15:41.789Z,51.88
2022-11-07T17:18:18.476Z,52.08
2022-11-07T17:20:52.815Z,52.05
2022-11-07T17:23:24.014Z,52.21
2022-11-07T17:25:54.150Z,52.06
2022-11-07T17:28:21.645Z,51.99
2022-11-07T17:30:48.388Z,52.29
2022-11-07T17:33:15.466Z,52.10
2022-11-07T17:35:42.256Z,52.18
2022-11-07T17:38:14.563Z,52.12
2022-11-07T17:40:41.480Z,51.92
2022-11-07T17:43:08.529Z,52.08
2022-11-07T17:45:35.243Z,52.03
2022-11-07T17:48:02.269Z,52.13
2022-11-07T17:50:29.087Z,52.20
2022-11-07T17:52:56.135Z,52.18
2022-11-07T17:55:24.641Z,52.08
2022-11-07T17:57:51.767Z,52.14
2022-11-07T18:00:20.463Z,51.94
2022-11-07T18:02:48.621Z,51.94
2022-11-07T18:05:16.447Z,51.96
2022-11-07T18:07:44.149Z,52.05
2022-11-07T18:10:12.195Z,51.96
2022-11-07T18:12:39.264Z,52.05
2022-11-07T18:15:06.401Z,52.01
2022-11-07T18:17:35.561Z,51.88
2022-11-07T18:20:04.051Z,52.04
2022-11-07T18:22:31.420Z,52.14
2022-11-07T18:24:58.161Z,52.27
2022-11-07T18:27:25.345Z,52.32
2022-11-07T18:29:52.076Z,52.17
2022-11-07T18:32:19.061Z,52.13
2022-11-07T18:34:45.810Z,52.36
2022-11-07T18:37:12.897Z,52.27
2022-11-07T18:39:39.661Z,52.28
2022-11-07T18:42:06.686Z,52.31
2022-11-07T18:44:33.408Z,52.30
2022-11-07T18:47:00.425Z,52.27
2022-11-07T18:49:27.185Z,52.15
2022-11-07T18:51:54.197Z,52.21
2022-11-07T18:54:22.169Z,52.29
2022-11-07T18:56:49.289Z,52.49
2022-11-07T18:59:16.068Z,52.37
2022-11-07T19:01:43.198Z,52.38
2022-11-07T19:04:11.456Z,52.26
2022-11-07T19:06:55.667Z,52.34
2022-11-07T19:09:32.372Z,52.19
2022-11-07T19:11:59.996Z,52.43
2022-11-07T19:14:27.189Z,52.42
2022-11-07T19:16:54.390Z,52.66
2022-11-07T19:19:21.148Z,52.61
2022-11-07T19:21:48.200Z,52.43
2022-11-07T19:24:15.308Z,52.50
2022-11-07T19:26:42.396Z,52.39
2022-11-07T19:29:12.197Z,52.51
2022-11-07T19:31:39.244Z,52.47
2022-11-07T19:34:39.516Z,52.48
2022-11-07T19:37:17.540Z,52.54
2022-11-07T19:39:44.521Z,52.56
2022-11-07T19:42:11.556Z,52.43
2022-11-07T19:44:40.766Z,52.52
2022-11-07T19:47:10.075Z,52.43
2022-11-07T19:49:36.784Z,52.44
2022-11-07T19:52:03.971Z,52.71
2022-11-07T19:54:30.713Z,52.59
2022-11-07T19:56:57.936Z,52.64
2022-11-07T19:59:24.860Z,52.61
2022-11-07T20:02:17.796Z,52.59
2022-11-07T20:04:38.621Z,52.72
2022-11-07T20:07:05.751Z,52.66
2022-11-07T20:09:34.249Z,52.76
2022-11-07T20:12:01.306Z,52.50
2022-11-07T20:14:27.995Z,52.71
2022-11-07T20:16:54.995Z,52.63
2022-11-07T20:19:21.720Z,52.54
2022-11-07T20:21:48.808Z,52.61
2022-11-07T20:24:15.560Z,52.67
2022-11-07T20:26:43.967Z,52.77
2022-11-07T20:29:10.719Z,52.69
2022-11-07T20:31:37.858Z,52.85
2022-11-07T20:34:05.664Z,52.81
2022-11-07T20:36:32.756Z,52.75
2022-11-07T20:39:00.033Z,52.74
2022-11-07T20:41:27.305Z,52.71
2022-11-07T20:43:58.035Z,52.77
2022-11-07T20:46:25.059Z,52.80
2022-11-07T20:48:51.925Z,52.85
2022-11-07T20:51:20.715Z,52.79
2022-11-07T20:53:50.428Z,52.87
2022-11-07T20:56:19.035Z,52.83
2022-11-07T20:58:46.547Z,52.76
2022-11-07T21:01:15.627Z,52.81
2022-11-07T21:03:44.119Z,52.92
2022-11-07T21:06:13.996Z,53.02
2022-11-07T21:08:42.160Z,52.92
2022-11-07T21:11:09.419Z,53.09
2022-11-07T21:13:36.296Z,52.81
2022-11-07T21:16:03.625Z,52.92
2022-11-07T21:18:30.562Z,52.66
2022-11-07T21:21:21.163Z,52.84
2022-11-07T21:23:48.441Z,52.95
2022-11-07T21:26:21.968Z,52.95
2022-11-07T21:28:48.763Z,52.83
2022-11-07T21:31:18.664Z,53.13
2022-11-07T21:33:46.201Z,53.99
2022-11-07T21:36:15.733Z,54.32
2022-11-07T21:38:42.426Z,53.86
2022-11-07T21:41:09.827Z,53.79
2022-11-07T21:43:36.852Z,53.90
2022-11-07T21:46:29.383Z,53.79
2022-11-07T21:48:56.279Z,53.67
2022-11-07T21:51:30.522Z,53.84
2022-11-07T21:53:57.742Z,53.83
2022-11-07T21:56:32.308Z,53.89
2022-11-07T21:59:00.409Z,53.93
2022-11-07T22:01:27.681Z,53.65
2022-11-07T22:04:11.232Z,53.91
2022-11-07T22:06:44.006Z,53.86
2022-11-07T22:09:15.189Z,53.73
2022-11-07T22:11:42.403Z,53.96
2022-11-07T22:14:11.619Z,53.89
2022-11-07T22:16:38.910Z,53.93
2022-11-07T22:19:11.173Z,53.90
2022-11-07T22:21:39.639Z,54.06
2022-11-07T22:24:06.695Z,53.95
2022-11-07T22:26:33.774Z,54.10
2022-11-07T22:29:00.472Z,54.03
2022-11-07T22:31:32.505Z,53.99
2022-11-07T22:34:00.097Z,54.16
2022-11-07T22:36:27.360Z,54.06
2022-11-07T22:38:55.363Z,54.16
2022-11-07T22:41:23.334Z,54.18
2022-11-07T22:43:50.243Z,54.45
2022-11-07T22:46:19.334Z,54.18
2022-11-07T22:48:46.421Z,54.21
2022-11-07T22:51:24.493Z,54.29
2022-11-07T22:54:02.039Z,54.23
2022-11-07T22:56:29.575Z,54.33
2022-11-07T22:58:56.443Z,54.17
2022-11-07T23:01:33.119Z,54.30
2022-11-07T23:04:00.009Z,54.50
2022-11-07T23:06:27.704Z,54.50
2022-11-07T23:08:56.639Z,54.26
2022-11-07T23:11:48.349Z,54.38
2022-11-07T23:14:17.624Z,54.64
2022-11-07T23:16:47.867Z,54.65
2022-11-07T23:19:15.374Z,54.53
2022-11-07T23:21:42.795Z,54.47
2022-11-07T23:24:09.726Z,54.51
2022-11-07T23:26:36.799Z,54.55
2022-11-07T23:29:14.384Z,54.62
2022-11-07T23:31:43.223Z,54.65
2022-11-07T23:34:10.287Z,54.75
2022-11-07T23:36:37.491Z,54.54
2022-11-07T23:39:05.601Z,54.79
2022-11-07T23:41:32.838Z,54.50
2022-11-07T23:43:59.674Z,54.77
2022-11-07T23:46:45.009Z,54.57
2022-11-07T23:49:30.355Z,54.56
2022-11-07T23:51:57.375Z,55.00
2022-11-07T23:54:42.625Z,54.71
2022-11-07T23:57:09.670Z,54.81
2022-11-07T23:59:54.923Z,54.76
